sensor_id;sensor_type;location;lat;lon;timestamp;P1;durP1;ratioP1;P2;durP2;ratioP2
37221;SDS011;23119;51.842;-2.230;2023-02-08T00:01:10;35.13;;;12.82;;
37221;SDS011;23119;51.842;-2.230;2023-02-08T00:03:38;35.55;;;14.52;;
37221;SDS011;23119;51.842;-2.230;2023-02-08T00:06:06;32.60;;;14.52;;
37221;SDS011;23119;51.842;-2.230;2023-02-08T00:08:33;29.23;;;12.80;;
37221;SDS011;23119;51.842;-2.230;2023-02-08T00:11:06;31.90;;;12.50;;
37221;SDS011;23119;51.842;-2.230;2023-02-08T00:13:37;36.30;;;12.65;;
37221;SDS011;23119;51.842;-2.230;2023-02-08T00:16:06;32.85;;;12.63;;
37221;SDS011;23119;51.842;-2.230;2023-02-08T00:18:40;27.48;;;13.10;;
37221;SDS011;23119;51.842;-2.230;2023-02-08T00:21:09;23.20;;;10.07;;
37221;SDS011;23119;51.842;-2.230;2023-02-08T00:23:36;35.20;;;11.40;;
37221;SDS011;23119;51.842;-2.230;2023-02-08T00:26:02;25.70;;;12.27;;
37221;SDS011;23119;51.842;-2.230;2023-02-08T00:28:33;25.83;;;11.85;;
37221;SDS011;23119;51.842;-2.230;2023-02-08T00:31:02;27.75;;;11.80;;
37221;SDS011;23119;51.842;-2.230;2023-02-08T00:33:28;33.50;;;11.02;;
37221;SDS011;23119;51.842;-2.230;2023-02-08T00:41:14;20.25;;;10.20;;
37221;SDS011;23119;51.842;-2.230;2023-02-08T00:43:40;28.60;;;11.38;;
37221;SDS011;23119;51.842;-2.230;2023-02-08T00:46:08;30.85;;;11.93;;
37221;SDS011;23119;51.842;-2.230;2023-02-08T00:48:33;35.25;;;11.82;;
37221;SDS011;23119;51.842;-2.230;2023-02-08T00:51:00;29.38;;;12.15;;
37221;SDS011;23119;51.842;-2.230;2023-02-08T00:53:28;26.67;;;11.43;;
37221;SDS011;23119;51.842;-2.230;2023-02-08T00:55:54;26.15;;;10.35;;
37221;SDS011;23119;51.842;-2.230;2023-02-08T00:58:20;24.40;;;9.68;;
37221;SDS011;23119;51.842;-2.230;2023-02-08T01:00:49;26.90;;;8.82;;
37221;SDS011;23119;51.842;-2.230;2023-02-08T01:03:15;19.77;;;8.80;;
37221;SDS011;23119;51.842;-2.230;2023-02-08T01:05:41;21.88;;;8.77;;
37221;SDS011;23119;51.842;-2.230;2023-02-08T01:08:07;24.17;;;8.75;;
37221;SDS011;23119;51.842;-2.230;2023-02-08T01:10:35;23.73;;;8.85;;
37221;SDS011;23119;51.842;-2.230;2023-02-08T01:13:03;23.98;;;8.48;;
37221;SDS011;23119;51.842;-2.230;2023-02-08T01:15:29;29.13;;;9.85;;
37221;SDS011;23119;51.842;-2.230;2023-02-08T01:17:55;42.38;;;15.77;;
37221;SDS011;23119;51.842;-2.230;2023-02-08T01:20:22;30.50;;;12.10;;
37221;SDS011;23119;51.842;-2.230;2023-02-08T01:22:48;36.22;;;13.65;;
37221;SDS011;23119;51.842;-2.230;2023-02-08T01:25:14;25.58;;;9.43;;
37221;SDS011;23119;51.842;-2.230;2023-02-08T01:27:42;37.72;;;9.88;;
37221;SDS011;23119;51.842;-2.230;2023-02-08T01:30:11;30.95;;;12.35;;
37221;SDS011;23119;51.842;-2.230;2023-02-08T01:32:42;29.25;;;9.32;;
37221;SDS011;23119;51.842;-2.230;2023-02-08T01:35:12;27.77;;;9.75;;
37221;SDS011;23119;51.842;-2.230;2023-02-08T01:37:45;33.22;;;10.50;;
37221;SDS011;23119;51.842;-2.230;2023-02-08T01:40:13;29.40;;;8.88;;
37221;SDS011;23119;51.842;-2.230;2023-02-08T01:42:40;26.75;;;10.20;;
37221;SDS011;23119;51.842;-2.230;2023-02-08T01:48:09;46.15;;;20.25;;
37221;SDS011;23119;51.842;-2.230;2023-02-08T01:50:44;50.78;;;19.92;;
37221;SDS011;23119;51.842;-2.230;2023-02-08T01:53:42;47.63;;;21.23;;
37221;SDS011;23119;51.842;-2.230;2023-02-08T01:56:19;53.47;;;19.70;;
37221;SDS011;23119;51.842;-2.230;2023-02-08T01:58:53;31.33;;;11.55;;
37221;SDS011;23119;51.842;-2.230;2023-02-08T02:01:24;21.80;;;9.38;;
37221;SDS011;23119;51.842;-2.230;2023-02-08T02:04:00;31.48;;;9.40;;
37221;SDS011;23119;51.842;-2.230;2023-02-08T02:06:32;25.40;;;9.30;;
37221;SDS011;23119;51.842;-2.230;2023-02-08T02:09:09;36.13;;;9.68;;
37221;SDS011;23119;51.842;-2.230;2023-02-08T02:11:49;29.88;;;10.27;;
37221;SDS011;23119;51.842;-2.230;2023-02-08T02:14:18;27.10;;;9.75;;
37221;SDS011;23119;51.842;-2.230;2023-02-08T02:16:50;30.50;;;10.20;;
37221;SDS011;23119;51.842;-2.230;2023-02-08T02:19:30;26.02;;;10.00;;
37221;SDS011;23119;51.842;-2.230;2023-02-08T02:25:31;32.33;;;9.20;;
37221;SDS011;23119;51.842;-2.230;2023-02-08T02:45:53;34.53;;;15.25;;
37221;SDS011;23119;51.842;-2.230;2023-02-08T02:48:45;28.60;;;12.73;;
37221;SDS011;23119;51.842;-2.230;2023-02-08T02:51:21;34.72;;;11.60;;
37221;SDS011;23119;51.842;-2.230;2023-02-08T02:54:18;26.67;;;11.82;;
37221;SDS011;23119;51.842;-2.230;2023-02-08T02:56:59;34.22;;;11.63;;
37221;SDS011;23119;51.842;-2.230;2023-02-08T02:59:27;29.40;;;11.00;;
37221;SDS011;23119;51.842;-2.230;2023-02-08T03:02:05;33.70;;;11.10;;
37221;SDS011;23119;51.842;-2.230;2023-02-08T03:20:30;36.00;;;12.77;;
37221;SDS011;23119;51.842;-2.230;2023-02-08T03:23:16;29.45;;;12.25;;
37221;SDS011;23119;51.842;-2.230;2023-02-08T03:25:55;33.88;;;11.15;;
37221;SDS011;23119;51.842;-2.230;2023-02-08T03:28:55;29.38;;;12.23;;
37221;SDS011;23119;51.842;-2.230;2023-02-08T03:31:58;36.50;;;13.95;;
37221;SDS011;23119;51.842;-2.230;2023-02-08T03:37:26;29.95;;;13.10;;
37221;SDS011;23119;51.842;-2.230;2023-02-08T03:39:57;27.33;;;11.77;;
37221;SDS011;23119;51.842;-2.230;2023-02-08T03:42:31;36.92;;;12.50;;
37221;SDS011;23119;51.842;-2.230;2023-02-08T03:45:18;35.03;;;12.57;;
37221;SDS011;23119;51.842;-2.230;2023-02-08T03:47:50;30.48;;;12.13;;
37221;SDS011;23119;51.842;-2.230;2023-02-08T03:50:20;25.75;;;11.38;;
37221;SDS011;23119;51.842;-2.230;2023-02-08T03:52:47;32.08;;;10.88;;
37221;SDS011;23119;51.842;-2.230;2023-02-08T03:55:18;30.77;;;9.93;;
37221;SDS011;23119;51.842;-2.230;2023-02-08T04:00:34;16.80;;;7.22;;
37221;SDS011;23119;51.842;-2.230;2023-02-08T04:03:11;26.90;;;9.02;;
37221;SDS011;23119;51.842;-2.230;2023-02-08T04:05:47;29.58;;;8.40;;
37221;SDS011;23119;51.842;-2.230;2023-02-08T04:08:19;29.08;;;9.95;;
37221;SDS011;23119;51.842;-2.230;2023-02-08T04:10:45;23.98;;;8.50;;
37221;SDS011;23119;51.842;-2.230;2023-02-08T04:13:14;29.20;;;8.80;;
37221;SDS011;23119;51.842;-2.230;2023-02-08T04:15:42;35.47;;;9.63;;
37221;SDS011;23119;51.842;-2.230;2023-02-08T04:18:08;25.50;;;8.77;;
37221;SDS011;23119;51.842;-2.230;2023-02-08T04:20:34;26.25;;;8.70;;
37221;SDS011;23119;51.842;-2.230;2023-02-08T04:23:02;26.35;;;10.10;;
37221;SDS011;23119;51.842;-2.230;2023-02-08T04:25:28;27.23;;;8.80;;
37221;SDS011;23119;51.842;-2.230;2023-02-08T04:27:54;21.98;;;8.40;;
37221;SDS011;23119;51.842;-2.230;2023-02-08T04:30:20;20.13;;;7.57;;
37221;SDS011;23119;51.842;-2.230;2023-02-08T04:32:46;23.35;;;7.80;;
37221;SDS011;23119;51.842;-2.230;2023-02-08T04:35:17;26.90;;;8.90;;
37221;SDS011;23119;51.842;-2.230;2023-02-08T04:37:42;22.33;;;8.75;;
37221;SDS011;23119;51.842;-2.230;2023-02-08T04:40:09;32.63;;;9.07;;
37221;SDS011;23119;51.842;-2.230;2023-02-08T04:42:35;32.55;;;9.68;;
37221;SDS011;23119;51.842;-2.230;2023-02-08T04:45:01;30.05;;;9.25;;
37221;SDS011;23119;51.842;-2.230;2023-02-08T04:47:27;27.92;;;8.95;;
37221;SDS011;23119;51.842;-2.230;2023-02-08T04:49:53;21.55;;;8.35;;
37221;SDS011;23119;51.842;-2.230;2023-02-08T04:52:20;23.95;;;9.20;;
37221;SDS011;23119;51.842;-2.230;2023-02-08T04:54:48;28.85;;;8.82;;
37221;SDS011;23119;51.842;-2.230;2023-02-08T04:57:15;23.98;;;8.38;;
37221;SDS011;23119;51.842;-2.230;2023-02-08T04:59:46;29.38;;;10.05;;
37221;SDS011;23119;51.842;-2.230;2023-02-08T05:02:12;24.38;;;8.93;;
37221;SDS011;23119;51.842;-2.230;2023-02-08T05:04:40;34.35;;;10.75;;
37221;SDS011;23119;51.842;-2.230;2023-02-08T05:07:05;31.50;;;9.23;;
37221;SDS011;23119;51.842;-2.230;2023-02-08T05:09:31;22.02;;;9.93;;
37221;SDS011;23119;51.842;-2.230;2023-02-08T05:11:57;30.05;;;10.82;;
37221;SDS011;23119;51.842;-2.230;2023-02-08T05:14:23;26.63;;;11.90;;
37221;SDS011;23119;51.842;-2.230;2023-02-08T05:16:49;32.10;;;12.57;;
37221;SDS011;23119;51.842;-2.230;2023-02-08T05:19:15;37.42;;;12.95;;
37221;SDS011;23119;51.842;-2.230;2023-02-08T05:21:43;23.75;;;11.32;;
37221;SDS011;23119;51.842;-2.230;2023-02-08T05:24:09;29.85;;;10.80;;
37221;SDS011;23119;51.842;-2.230;2023-02-08T05:26:36;21.83;;;10.88;;
37221;SDS011;23119;51.842;-2.230;2023-02-08T05:29:11;22.90;;;10.27;;
37221;SDS011;23119;51.842;-2.230;2023-02-08T05:31:37;26.65;;;8.85;;
37221;SDS011;23119;51.842;-2.230;2023-02-08T05:34:03;23.40;;;7.57;;
37221;SDS011;23119;51.842;-2.230;2023-02-08T05:36:29;24.58;;;7.13;;
37221;SDS011;23119;51.842;-2.230;2023-02-08T05:38:55;19.10;;;5.70;;
37221;SDS011;23119;51.842;-2.230;2023-02-08T05:41:23;19.58;;;6.78;;
37221;SDS011;23119;51.842;-2.230;2023-02-08T05:43:49;19.83;;;5.80;;
37221;SDS011;23119;51.842;-2.230;2023-02-08T05:46:15;23.45;;;6.93;;
37221;SDS011;23119;51.842;-2.230;2023-02-08T05:48:41;23.58;;;6.65;;
37221;SDS011;23119;51.842;-2.230;2023-02-08T05:51:09;16.83;;;6.13;;
37221;SDS011;23119;51.842;-2.230;2023-02-08T05:53:35;18.75;;;6.65;;
37221;SDS011;23119;51.842;-2.230;2023-02-08T05:56:01;22.23;;;6.82;;
37221;SDS011;23119;51.842;-2.230;2023-02-08T05:58:27;26.13;;;6.43;;
37221;SDS011;23119;51.842;-2.230;2023-02-08T06:00:53;22.33;;;6.07;;
37221;SDS011;23119;51.842;-2.230;2023-02-08T06:03:20;20.70;;;6.68;;
37221;SDS011;23119;51.842;-2.230;2023-02-08T06:05:47;27.80;;;6.57;;
37221;SDS011;23119;51.842;-2.230;2023-02-08T06:08:15;18.92;;;6.20;;
37221;SDS011;23119;51.842;-2.230;2023-02-08T06:10:46;25.63;;;6.20;;
37221;SDS011;23119;51.842;-2.230;2023-02-08T06:13:13;22.08;;;7.30;;
37221;SDS011;23119;51.842;-2.230;2023-02-08T06:15:40;26.55;;;7.43;;
37221;SDS011;23119;51.842;-2.230;2023-02-08T06:18:05;25.15;;;7.47;;
37221;SDS011;23119;51.842;-2.230;2023-02-08T06:20:36;29.75;;;9.20;;
37221;SDS011;23119;51.842;-2.230;2023-02-08T06:23:04;31.35;;;9.52;;
37221;SDS011;23119;51.842;-2.230;2023-02-08T06:25:30;25.75;;;8.63;;
37221;SDS011;23119;51.842;-2.230;2023-02-08T06:27:56;25.85;;;6.70;;
37221;SDS011;23119;51.842;-2.230;2023-02-08T06:30:22;17.58;;;7.30;;
37221;SDS011;23119;51.842;-2.230;2023-02-08T06:32:51;27.42;;;7.65;;
37221;SDS011;23119;51.842;-2.230;2023-02-08T06:35:19;34.53;;;8.55;;
37221;SDS011;23119;51.842;-2.230;2023-02-08T06:37:45;25.52;;;7.20;;
37221;SDS011;23119;51.842;-2.230;2023-02-08T06:40:11;22.40;;;7.93;;
37221;SDS011;23119;51.842;-2.230;2023-02-08T06:42:37;32.38;;;8.48;;
37221;SDS011;23119;51.842;-2.230;2023-02-08T06:45:03;21.23;;;7.85;;
37221;SDS011;23119;51.842;-2.230;2023-02-08T06:47:29;26.20;;;7.20;;
37221;SDS011;23119;51.842;-2.230;2023-02-08T06:49:57;29.55;;;8.90;;
37221;SDS011;23119;51.842;-2.230;2023-02-08T06:52:23;26.25;;;8.95;;
37221;SDS011;23119;51.842;-2.230;2023-02-08T06:54:51;31.27;;;11.05;;
37221;SDS011;23119;51.842;-2.230;2023-02-08T06:57:17;26.35;;;11.10;;
37221;SDS011;23119;51.842;-2.230;2023-02-08T06:59:45;26.92;;;11.52;;
37221;SDS011;23119;51.842;-2.230;2023-02-08T07:02:12;34.67;;;13.55;;
37221;SDS011;23119;51.842;-2.230;2023-02-08T07:04:42;29.48;;;11.07;;
37221;SDS011;23119;51.842;-2.230;2023-02-08T07:07:12;36.55;;;12.98;;
37221;SDS011;23119;51.842;-2.230;2023-02-08T07:09:39;40.55;;;15.45;;
37221;SDS011;23119;51.842;-2.230;2023-02-08T07:12:04;39.63;;;15.32;;
37221;SDS011;23119;51.842;-2.230;2023-02-08T07:14:31;46.45;;;17.02;;
37221;SDS011;23119;51.842;-2.230;2023-02-08T07:17:01;39.17;;;14.95;;
37221;SDS011;23119;51.842;-2.230;2023-02-08T07:19:29;46.97;;;15.75;;
37221;SDS011;23119;51.842;-2.230;2023-02-08T07:21:55;29.15;;;10.32;;
37221;SDS011;23119;51.842;-2.230;2023-02-08T07:26:55;27.55;;;9.40;;
37221;SDS011;23119;51.842;-2.230;2023-02-08T07:29:20;29.73;;;10.05;;
37221;SDS011;23119;51.842;-2.230;2023-02-08T07:31:46;27.55;;;9.90;;
37221;SDS011;23119;51.842;-2.230;2023-02-08T07:34:12;28.60;;;8.98;;
37221;SDS011;23119;51.842;-2.230;2023-02-08T07:36:40;23.70;;;9.02;;
37221;SDS011;23119;51.842;-2.230;2023-02-08T07:39:06;25.90;;;9.02;;
37221;SDS011;23119;51.842;-2.230;2023-02-08T07:41:32;30.98;;;7.95;;
37221;SDS011;23119;51.842;-2.230;2023-02-08T07:44:00;31.10;;;10.93;;
37221;SDS011;23119;51.842;-2.230;2023-02-08T07:46:26;31.13;;;9.30;;
37221;SDS011;23119;51.842;-2.230;2023-02-08T07:48:52;26.80;;;9.00;;
37221;SDS011;23119;51.842;-2.230;2023-02-08T07:51:18;33.80;;;10.73;;
37221;SDS011;23119;51.842;-2.230;2023-02-08T07:53:44;32.13;;;9.52;;
37221;SDS011;23119;51.842;-2.230;2023-02-08T07:56:13;24.42;;;9.23;;
37221;SDS011;23119;51.842;-2.230;2023-02-08T07:58:39;28.13;;;11.85;;
37221;SDS011;23119;51.842;-2.230;2023-02-08T08:01:05;34.78;;;14.50;;
37221;SDS011;23119;51.842;-2.230;2023-02-08T08:03:33;35.80;;;14.60;;
37221;SDS011;23119;51.842;-2.230;2023-02-08T08:05:59;34.17;;;13.07;;
37221;SDS011;23119;51.842;-2.230;2023-02-08T08:08:25;33.72;;;14.75;;
37221;SDS011;23119;51.842;-2.230;2023-02-08T08:10:51;34.25;;;15.25;;
37221;SDS011;23119;51.842;-2.230;2023-02-08T08:13:17;34.70;;;15.40;;
37221;SDS011;23119;51.842;-2.230;2023-02-08T08:15:48;43.53;;;16.15;;
37221;SDS011;23119;51.842;-2.230;2023-02-08T08:18:16;38.08;;;16.05;;
37221;SDS011;23119;51.842;-2.230;2023-02-08T08:20:42;41.67;;;18.63;;
37221;SDS011;23119;51.842;-2.230;2023-02-08T08:23:11;37.83;;;17.08;;
37221;SDS011;23119;51.842;-2.230;2023-02-08T08:25:37;33.22;;;17.00;;
37221;SDS011;23119;51.842;-2.230;2023-02-08T08:28:05;36.65;;;17.15;;
37221;SDS011;23119;51.842;-2.230;2023-02-08T08:30:31;34.97;;;16.90;;
37221;SDS011;23119;51.842;-2.230;2023-02-08T08:32:56;35.80;;;17.88;;
37221;SDS011;23119;51.842;-2.230;2023-02-08T08:35:22;36.78;;;17.77;;
37221;SDS011;23119;51.842;-2.230;2023-02-08T08:37:51;41.55;;;19.77;;
37221;SDS011;23119;51.842;-2.230;2023-02-08T08:40:16;40.92;;;22.27;;
37221;SDS011;23119;51.842;-2.230;2023-02-08T08:42:42;45.47;;;23.65;;
37221;SDS011;23119;51.842;-2.230;2023-02-08T08:45:09;35.58;;;19.65;;
37221;SDS011;23119;51.842;-2.230;2023-02-08T08:47:35;30.65;;;16.60;;
37221;SDS011;23119;51.842;-2.230;2023-02-08T08:50:00;36.95;;;15.43;;
37221;SDS011;23119;51.842;-2.230;2023-02-08T08:52:27;25.42;;;13.75;;
37221;SDS011;23119;51.842;-2.230;2023-02-08T08:54:53;22.55;;;12.20;;
37221;SDS011;23119;51.842;-2.230;2023-02-08T08:57:19;20.48;;;11.80;;
37221;SDS011;23119;51.842;-2.230;2023-02-08T08:59:44;17.23;;;10.55;;
37221;SDS011;23119;51.842;-2.230;2023-02-08T09:02:17;21.58;;;10.70;;
37221;SDS011;23119;51.842;-2.230;2023-02-08T09:04:55;21.65;;;9.82;;
37221;SDS011;23119;51.842;-2.230;2023-02-08T09:07:23;18.30;;;10.02;;
37221;SDS011;23119;51.842;-2.230;2023-02-08T09:09:49;17.48;;;9.60;;
37221;SDS011;23119;51.842;-2.230;2023-02-08T09:12:24;20.67;;;10.68;;
37221;SDS011;23119;51.842;-2.230;2023-02-08T09:14:50;20.92;;;9.85;;
37221;SDS011;23119;51.842;-2.230;2023-02-08T09:17:15;16.33;;;9.40;;
37221;SDS011;23119;51.842;-2.230;2023-02-08T09:19:41;14.68;;;9.23;;
37221;SDS011;23119;51.842;-2.230;2023-02-08T09:22:07;15.38;;;9.20;;
37221;SDS011;23119;51.842;-2.230;2023-02-08T09:24:33;17.77;;;9.48;;
37221;SDS011;23119;51.842;-2.230;2023-02-08T09:26:59;17.02;;;9.25;;
37221;SDS011;23119;51.842;-2.230;2023-02-08T09:29:27;16.30;;;9.82;;
37221;SDS011;23119;51.842;-2.230;2023-02-08T09:31:54;14.75;;;9.05;;
37221;SDS011;23119;51.842;-2.230;2023-02-08T09:34:20;16.10;;;9.85;;
37221;SDS011;23119;51.842;-2.230;2023-02-08T09:36:46;16.30;;;9.40;;
37221;SDS011;23119;51.842;-2.230;2023-02-08T09:39:16;15.50;;;8.70;;
37221;SDS011;23119;51.842;-2.230;2023-02-08T09:44:45;14.07;;;9.05;;
37221;SDS011;23119;51.842;-2.230;2023-02-08T09:50:00;15.88;;;8.75;;
37221;SDS011;23119;51.842;-2.230;2023-02-08T09:55:25;16.25;;;9.45;;
37221;SDS011;23119;51.842;-2.230;2023-02-08T09:58:02;17.08;;;10.02;;
37221;SDS011;23119;51.842;-2.230;2023-02-08T10:00:40;16.60;;;10.82;;
37221;SDS011;23119;51.842;-2.230;2023-02-08T10:03:33;19.52;;;11.05;;
37221;SDS011;23119;51.842;-2.230;2023-02-08T10:06:08;16.10;;;10.50;;
37221;SDS011;23119;51.842;-2.230;2023-02-08T10:08:42;14.50;;;9.98;;
37221;SDS011;23119;51.842;-2.230;2023-02-08T10:17:06;15.60;;;8.85;;
37221;SDS011;23119;51.842;-2.230;2023-02-08T10:30:56;10.88;;;3.67;;
37221;SDS011;23119;51.842;-2.230;2023-02-08T10:33:40;10.52;;;4.93;;
37221;SDS011;23119;51.842;-2.230;2023-02-08T10:36:21;10.43;;;4.40;;
37221;SDS011;23119;51.842;-2.230;2023-02-08T10:38:52;9.75;;;4.00;;
37221;SDS011;23119;51.842;-2.230;2023-02-08T10:41:53;14.25;;;4.35;;
37221;SDS011;23119;51.842;-2.230;2023-02-08T10:52:26;7.22;;;3.95;;
37221;SDS011;23119;51.842;-2.230;2023-02-08T10:54:52;5.72;;;2.55;;
37221;SDS011;23119;51.842;-2.230;2023-02-08T10:57:24;6.65;;;2.63;;
37221;SDS011;23119;51.842;-2.230;2023-02-08T11:00:06;7.47;;;3.50;;
37221;SDS011;23119;51.842;-2.230;2023-02-08T11:02:38;8.80;;;3.58;;
37221;SDS011;23119;51.842;-2.230;2023-02-08T11:07:33;8.02;;;3.92;;
37221;SDS011;23119;51.842;-2.230;2023-02-08T11:12:42;20.58;;;4.40;;
37221;SDS011;23119;51.842;-2.230;2023-02-08T11:15:24;11.00;;;4.47;;
37221;SDS011;23119;51.842;-2.230;2023-02-08T11:18:46;8.18;;;3.88;;
37221;SDS011;23119;51.842;-2.230;2023-02-08T11:21:24;13.45;;;4.70;;
37221;SDS011;23119;51.842;-2.230;2023-02-08T11:23:49;11.00;;;4.72;;
37221;SDS011;23119;51.842;-2.230;2023-02-08T11:26:37;8.68;;;4.03;;
37221;SDS011;23119;51.842;-2.230;2023-02-08T11:29:14;11.50;;;3.97;;
37221;SDS011;23119;51.842;-2.230;2023-02-08T11:34:31;9.98;;;3.53;;
37221;SDS011;23119;51.842;-2.230;2023-02-08T11:39:53;11.60;;;4.15;;
37221;SDS011;23119;51.842;-2.230;2023-02-08T11:42:27;12.43;;;4.40;;
37221;SDS011;23119;51.842;-2.230;2023-02-08T11:45:04;13.45;;;5.00;;
37221;SDS011;23119;51.842;-2.230;2023-02-08T11:47:45;12.93;;;4.28;;
37221;SDS011;23119;51.842;-2.230;2023-02-08T11:50:20;15.60;;;4.97;;
37221;SDS011;23119;51.842;-2.230;2023-02-08T11:53:00;12.20;;;4.55;;
37221;SDS011;23119;51.842;-2.230;2023-02-08T11:58:30;10.77;;;4.45;;
37221;SDS011;23119;51.842;-2.230;2023-02-08T12:01:05;8.98;;;4.97;;
37221;SDS011;23119;51.842;-2.230;2023-02-08T12:03:41;12.82;;;5.30;;
37221;SDS011;23119;51.842;-2.230;2023-02-08T12:17:23;11.32;;;5.13;;
37221;SDS011;23119;51.842;-2.230;2023-02-08T12:22:32;10.27;;;4.18;;
37221;SDS011;23119;51.842;-2.230;2023-02-08T12:27:59;11.00;;;4.00;;
37221;SDS011;23119;51.842;-2.230;2023-02-08T12:42:08;11.90;;;4.72;;
37221;SDS011;23119;51.842;-2.230;2023-02-08T12:45:11;13.65;;;5.35;;
37221;SDS011;23119;51.842;-2.230;2023-02-08T12:53:37;15.45;;;6.13;;
37221;SDS011;23119;51.842;-2.230;2023-02-08T12:56:12;12.70;;;6.05;;
37221;SDS011;23119;51.842;-2.230;2023-02-08T12:58:44;12.85;;;4.70;;
37221;SDS011;23119;51.842;-2.230;2023-02-08T13:01:25;13.88;;;5.53;;
37221;SDS011;23119;51.842;-2.230;2023-02-08T13:06:29;10.40;;;4.40;;
37221;SDS011;23119;51.842;-2.230;2023-02-08T13:09:13;12.50;;;6.45;;
37221;SDS011;23119;51.842;-2.230;2023-02-08T13:12:05;13.52;;;5.75;;
37221;SDS011;23119;51.842;-2.230;2023-02-08T13:14:51;16.15;;;5.80;;
37221;SDS011;23119;51.842;-2.230;2023-02-08T13:17:26;11.20;;;5.00;;
37221;SDS011;23119;51.842;-2.230;2023-02-08T13:22:38;11.98;;;6.65;;
37221;SDS011;23119;51.842;-2.230;2023-02-08T13:25:06;14.43;;;6.07;;
37221;SDS011;23119;51.842;-2.230;2023-02-08T13:27:43;10.98;;;5.93;;
37221;SDS011;23119;51.842;-2.230;2023-02-08T13:30:18;10.77;;;5.18;;
37221;SDS011;23119;51.842;-2.230;2023-02-08T13:32:47;9.82;;;5.50;;
37221;SDS011;23119;51.842;-2.230;2023-02-08T13:35:18;13.63;;;6.55;;
37221;SDS011;23119;51.842;-2.230;2023-02-08T13:38:01;11.50;;;5.47;;
37221;SDS011;23119;51.842;-2.230;2023-02-08T13:40:35;13.07;;;6.15;;
37221;SDS011;23119;51.842;-2.230;2023-02-08T13:46:01;13.55;;;6.85;;
37221;SDS011;23119;51.842;-2.230;2023-02-08T13:49:12;13.60;;;6.28;;
37221;SDS011;23119;51.842;-2.230;2023-02-08T13:56:43;8.20;;;4.68;;
37221;SDS011;23119;51.842;-2.230;2023-02-08T13:59:28;17.92;;;7.85;;
37221;SDS011;23119;51.842;-2.230;2023-02-08T14:05:31;13.23;;;7.28;;
37221;SDS011;23119;51.842;-2.230;2023-02-08T14:08:07;14.27;;;7.18;;
37221;SDS011;23119;51.842;-2.230;2023-02-08T14:10:49;11.95;;;6.95;;
37221;SDS011;23119;51.842;-2.230;2023-02-08T14:13:47;13.75;;;6.68;;
37221;SDS011;23119;51.842;-2.230;2023-02-08T14:18:53;15.45;;;5.43;;
37221;SDS011;23119;51.842;-2.230;2023-02-08T14:21:26;12.68;;;6.20;;
37221;SDS011;23119;51.842;-2.230;2023-02-08T14:24:04;16.27;;;6.90;;
37221;SDS011;23119;51.842;-2.230;2023-02-08T14:26:44;14.38;;;6.65;;
37221;SDS011;23119;51.842;-2.230;2023-02-08T14:29:20;12.52;;;6.65;;
37221;SDS011;23119;51.842;-2.230;2023-02-08T14:31:56;13.50;;;6.15;;
37221;SDS011;23119;51.842;-2.230;2023-02-08T14:34:28;11.75;;;5.95;;
37221;SDS011;23119;51.842;-2.230;2023-02-08T14:37:24;13.18;;;6.43;;
37221;SDS011;23119;51.842;-2.230;2023-02-08T14:43:26;9.30;;;5.22;;
37221;SDS011;23119;51.842;-2.230;2023-02-08T14:45:54;12.23;;;5.25;;
37221;SDS011;23119;51.842;-2.230;2023-02-08T14:48:29;14.23;;;5.63;;
37221;SDS011;23119;51.842;-2.230;2023-02-08T14:56:23;11.20;;;5.45;;
37221;SDS011;23119;51.842;-2.230;2023-02-08T15:04:09;11.98;;;4.90;;
37221;SDS011;23119;51.842;-2.230;2023-02-08T15:09:26;12.53;;;5.00;;
37221;SDS011;23119;51.842;-2.230;2023-02-08T15:12:00;11.55;;;5.65;;
37221;SDS011;23119;51.842;-2.230;2023-02-08T15:14:35;12.77;;;5.63;;
37221;SDS011;23119;51.842;-2.230;2023-02-08T15:17:13;16.05;;;6.22;;
37221;SDS011;23119;51.842;-2.230;2023-02-08T15:19:53;12.88;;;5.13;;
37221;SDS011;23119;51.842;-2.230;2023-02-08T15:24:52;14.15;;;5.85;;
37221;SDS011;23119;51.842;-2.230;2023-02-08T15:27:29;13.93;;;6.38;;
37221;SDS011;23119;51.842;-2.230;2023-02-08T15:29:57;17.42;;;7.15;;
37221;SDS011;23119;51.842;-2.230;2023-02-08T15:32:24;11.77;;;5.43;;
37221;SDS011;23119;51.842;-2.230;2023-02-08T15:34:55;15.60;;;8.05;;
37221;SDS011;23119;51.842;-2.230;2023-02-08T15:37:26;12.98;;;6.22;;
37221;SDS011;23119;51.842;-2.230;2023-02-08T15:39:58;18.50;;;7.18;;
37221;SDS011;23119;51.842;-2.230;2023-02-08T15:42:31;16.50;;;6.45;;
37221;SDS011;23119;51.842;-2.230;2023-02-08T15:44:58;14.70;;;6.53;;
37221;SDS011;23119;51.842;-2.230;2023-02-08T15:49:56;18.27;;;6.50;;
37221;SDS011;23119;51.842;-2.230;2023-02-08T15:52:27;10.90;;;6.20;;
37221;SDS011;23119;51.842;-2.230;2023-02-08T15:54:55;14.98;;;5.97;;
37221;SDS011;23119;51.842;-2.230;2023-02-08T16:00:04;15.70;;;7.03;;
37221;SDS011;23119;51.842;-2.230;2023-02-08T16:02:42;12.63;;;5.53;;
37221;SDS011;23119;51.842;-2.230;2023-02-08T16:05:23;13.73;;;7.25;;
37221;SDS011;23119;51.842;-2.230;2023-02-08T16:07:57;17.02;;;6.25;;
37221;SDS011;23119;51.842;-2.230;2023-02-08T16:10:41;14.40;;;5.82;;
37221;SDS011;23119;51.842;-2.230;2023-02-08T16:13:19;11.77;;;5.80;;
37221;SDS011;23119;51.842;-2.230;2023-02-08T16:24:35;17.13;;;7.30;;
37221;SDS011;23119;51.842;-2.230;2023-02-08T16:26:48;12.05;;;5.20;;
37221;SDS011;23119;51.842;-2.230;2023-02-08T16:31:58;15.98;;;6.80;;
37221;SDS011;23119;51.842;-2.230;2023-02-08T16:34:28;12.63;;;6.85;;
37221;SDS011;23119;51.842;-2.230;2023-02-08T16:37:05;18.05;;;6.78;;
37221;SDS011;23119;51.842;-2.230;2023-02-08T16:42:24;16.80;;;6.10;;
37221;SDS011;23119;51.842;-2.230;2023-02-08T16:47:34;17.02;;;7.03;;
37221;SDS011;23119;51.842;-2.230;2023-02-08T16:50:10;14.18;;;7.15;;
37221;SDS011;23119;51.842;-2.230;2023-02-08T16:52:41;21.80;;;6.78;;
37221;SDS011;23119;51.842;-2.230;2023-02-08T16:55:22;16.75;;;5.95;;
37221;SDS011;23119;51.842;-2.230;2023-02-08T16:57:51;16.58;;;7.30;;
37221;SDS011;23119;51.842;-2.230;2023-02-08T17:00:24;15.82;;;7.10;;
37221;SDS011;23119;51.842;-2.230;2023-02-08T17:02:55;17.63;;;6.72;;
37221;SDS011;23119;51.842;-2.230;2023-02-08T17:05:26;19.05;;;7.45;;
37221;SDS011;23119;51.842;-2.230;2023-02-08T17:08:03;16.10;;;7.10;;
37221;SDS011;23119;51.842;-2.230;2023-02-08T17:10:32;20.27;;;8.10;;
37221;SDS011;23119;51.842;-2.230;2023-02-08T17:13:01;15.05;;;7.85;;
37221;SDS011;23119;51.842;-2.230;2023-02-08T17:15:30;14.98;;;7.68;;
37221;SDS011;23119;51.842;-2.230;2023-02-08T17:18:01;20.27;;;8.50;;
37221;SDS011;23119;51.842;-2.230;2023-02-08T17:20:29;16.65;;;7.55;;
37221;SDS011;23119;51.842;-2.230;2023-02-08T17:22:57;18.67;;;8.07;;
37221;SDS011;23119;51.842;-2.230;2023-02-08T17:25:24;19.48;;;8.15;;
37221;SDS011;23119;51.842;-2.230;2023-02-08T17:27:57;18.45;;;7.72;;
37221;SDS011;23119;51.842;-2.230;2023-02-08T17:30:31;15.93;;;7.22;;
37221;SDS011;23119;51.842;-2.230;2023-02-08T17:33:02;17.08;;;7.82;;
37221;SDS011;23119;51.842;-2.230;2023-02-08T17:35:30;17.92;;;7.13;;
37221;SDS011;23119;51.842;-2.230;2023-02-08T17:38:01;15.95;;;7.85;;
37221;SDS011;23119;51.842;-2.230;2023-02-08T17:40:32;21.98;;;8.52;;
37221;SDS011;23119;51.842;-2.230;2023-02-08T17:43:02;19.23;;;9.13;;
37221;SDS011;23119;51.842;-2.230;2023-02-08T17:45:35;19.58;;;8.95;;
37221;SDS011;23119;51.842;-2.230;2023-02-08T17:48:05;18.05;;;8.27;;
37221;SDS011;23119;51.842;-2.230;2023-02-08T17:50:31;20.85;;;8.85;;
37221;SDS011;23119;51.842;-2.230;2023-02-08T17:53:00;17.75;;;8.05;;
37221;SDS011;23119;51.842;-2.230;2023-02-08T17:55:27;25.17;;;8.48;;
37221;SDS011;23119;51.842;-2.230;2023-02-08T17:57:53;14.63;;;7.25;;